»·PEaware :: N846 KSAN-KLAX

N846 :: KSAN-KLAX

FLIGHT INFORMATION

Flight Status: Arrived
Operator: Privately registered:
United States
More flights under this callsign
Pilot: Ryan R. (19075)
Aircraft: BOEING 737-900
(B739)
More flights by this aircraft type
Origin: KSAN San Diego Intl-Lindbergh
United States
Destination: KLAX Los Angeles Intl
United States
More flights between these airports :: More routes between these airports
Route: +PEBLE6 SLI
File this flight plan on PilotEdge
Remarks:
Altitude:
(Current/Filed)
12,000ft
Speed:
(Current/Filed)
250kts
Departed: 03-May-18 08:13 PM
Arrived: 03-May-18 08:41 PM
Distance/Time
Traveled:
95nm/0:28
Distance/Time
To Go:
Arrived

Flight Plot

Page will automatically refresh every two minutes.


Map Options




Map Legend


Flown Route
Filed Route
Departure Airport
Arrival Airport
Navaid (VOR, NDB)
Fix

Horizontal Profiles

Position Reports

Time Latitude Longitude Heading Altitude Ground
Speed
03-May-18 19:50 32.733267 -117.196041 200 19ft 0kts
03-May-18 19:51 32.733267 -117.196041 200 19ft 0kts
03-May-18 19:52 32.733267 -117.196041 200 19ft 0kts
03-May-18 19:53 32.733267 -117.196041 200 19ft 0kts
03-May-18 19:54 32.733267 -117.196041 200 19ft 0kts
03-May-18 19:55 32.733267 -117.196041 200 19ft 0kts
03-May-18 19:56 32.733267 -117.196041 200 19ft 0kts
03-May-18 19:57 32.733267 -117.196041 200 19ft 0kts
03-May-18 19:58 32.733267 -117.196041 200 19ft 0kts
03-May-18 19:59 32.733267 -117.196041 200 19ft 0kts
03-May-18 20:00 32.733267 -117.196041 200 19ft 0kts
03-May-18 20:01 32.733267 -117.196041 200 19ft 0kts
03-May-18 20:02 32.733267 -117.196041 200 19ft 0kts
03-May-18 20:03 32.733267 -117.196041 200 19ft 0kts
03-May-18 20:04 32.733551 -117.195892 203 19ft 2kts
03-May-18 20:05 32.733965 -117.195717 148 19ft 1kts
03-May-18 20:06 32.734046 -117.195937 104 19ft 0kts
03-May-18 20:07 32.734045 -117.195937 104 19ft 0kts
03-May-18 20:08 32.733743 -117.194729 105 21ft 17kts
03-May-18 20:09 32.731962 -117.187360 106 18ft 24kts
03-May-18 20:10 32.729924 -117.178907 104 19ft 28kts
03-May-18 20:11 32.729516 -117.177202 99 22ft 0kts
03-May-18 20:12 32.730205 -117.175982 301 24ft 4kts
03-May-18 20:13 32.740154 -117.215715 288 1150ft 181kts
03-May-18 20:14 32.755204 -117.272099 294 3821ft 190kts
03-May-18 20:15 32.782595 -117.331548 317 4628ft 210kts
03-May-18 20:16 32.829472 -117.382862 319 6466ft 238kts
03-May-18 20:17 32.879010 -117.436502 320 8170ft 245kts
03-May-18 20:18 32.930182 -117.491799 320 9768ft 253kts
03-May-18 20:19 32.985739 -117.551691 320 9985ft 276kts
03-May-18 20:19 33.033009 -117.602692 321 9981ft 276kts
03-May-18 20:20 33.084626 -117.669851 296 9993ft 283kts
03-May-18 20:21 33.126386 -117.746593 310 9982ft 278kts
03-May-18 20:22 33.173146 -117.819904 312 9982ft 278kts
03-May-18 20:23 33.240258 -117.857316 345 9985ft 270kts
03-May-18 20:24 33.311401 -117.883064 345 9990ft 270kts
03-May-18 20:25 33.383180 -117.909056 344 9824ft 267kts
03-May-18 20:26 33.451535 -117.933864 344 9274ft 252kts
03-May-18 20:27 33.518102 -117.958052 343 8773ft 249kts
03-May-18 20:28 33.584124 -117.982081 343 8301ft 248kts
03-May-18 20:29 33.648944 -118.005707 343 7853ft 246kts
03-May-18 20:30 33.711840 -118.028669 343 7414ft 244kts
03-May-18 20:31 33.774695 -118.051649 342 6995ft 242kts
03-May-18 20:32 33.835534 -118.085932 338 6868ft 246kts
03-May-18 20:33 33.901320 -118.112072 341 5336ft 241kts
03-May-18 20:34 33.962217 -118.134330 341 3724ft 221kts
03-May-18 20:35 33.982310 -118.183735 243 2999ft 207kts
03-May-18 20:36 33.956650 -118.239938 245 3012ft 159kts
03-May-18 20:37 33.946246 -118.289303 263 1972ft 154kts
03-May-18 20:38 33.941704 -118.339937 262 877ft 151kts
03-May-18 20:39 33.936835 -118.388377 262 109ft 135kts
03-May-18 20:40 33.936565 -118.399504 287 115ft 0kts
03-May-18 20:41 33.936632 -118.399857 278 116ft 9kts
03-May-18 20:42 33.936275 -118.404221 262 121ft 20kts
03-May-18 20:43 33.936444 -118.408868 337 126ft 18kts
03-May-18 20:44 33.938107 -118.406529 84 125ft 27kts
03-May-18 20:45 33.940041 -118.405492 353 122ft 3kts

Navigation Log

Ident Type
1. KSAN Airport
2. MELDY Fix
3. PEBLE Fix
4. SLI Navaid
5. KLAX Airport